createdAt,value
2022-10-09T08:39:59.787Z,2.55
2022-10-09T08:42:52.366Z,2.72
2022-10-09T08:45:24.006Z,2.50
2022-10-09T08:48:06.137Z,2.55
2022-10-09T08:50:41.474Z,2.72
2022-10-09T08:53:16.650Z,2.65
2022-10-09T08:56:09.085Z,2.80
2022-10-09T08:58:45.037Z,2.88
2022-10-09T09:01:49.038Z,2.08
2022-10-09T09:04:42.741Z,2.00
2022-10-09T09:07:25.665Z,2.40
2022-10-09T09:10:23.425Z,2.33
2022-10-09T09:13:34.359Z,2.53
2022-10-09T09:16:33.616Z,1.80
2022-10-09T09:19:18.555Z,2.10
2022-10-09T09:21:54.939Z,1.80
2022-10-09T09:27:22.694Z,1.40
2022-10-09T09:30:04.797Z,1.58
2022-10-09T09:32:35.005Z,2.25
2022-10-09T09:35:24.238Z,1.63
2022-10-09T09:37:54.197Z,1.52
2022-10-09T09:40:37.213Z,1.65
2022-10-09T09:43:29.759Z,1.48
2022-10-09T09:46:06.479Z,1.80
2022-10-09T09:48:45.800Z,1.48
2022-10-09T09:51:28.643Z,1.80
2022-10-09T09:54:22.284Z,1.45
2022-10-09T09:57:22.028Z,1.60
2022-10-09T09:59:52.276Z,1.23
2022-10-09T10:02:33.481Z,2.20
2022-10-09T10:05:25.714Z,1.48
2022-10-09T10:08:10.324Z,1.50
2022-10-09T10:13:47.432Z,1.38
2022-10-09T10:16:30.042Z,1.30
2022-10-09T10:19:10.755Z,1.25
2022-10-09T10:22:02.307Z,1.25
2022-10-09T10:24:53.922Z,1.65
2022-10-09T10:27:47.810Z,1.38
2022-10-09T10:30:23.150Z,1.00
2022-10-09T10:33:07.194Z,1.00
2022-10-09T10:35:50.454Z,1.30
2022-10-09T10:49:14.453Z,1.08
2022-10-09T10:52:30.903Z,1.50
2022-10-09T10:55:15.514Z,1.20
2022-10-09T10:58:09.224Z,1.38
2022-10-09T11:02:08.367Z,1.00
2022-10-09T11:04:49.129Z,1.00
2022-10-09T11:08:08.548Z,1.10
2022-10-09T11:11:08.041Z,1.05
2022-10-09T11:14:04.440Z,1.30
2022-10-09T11:16:54.196Z,1.67
2022-10-09T11:19:32.739Z,1.10
2022-10-09T11:22:32.486Z,1.10
2022-10-09T11:25:24.273Z,1.70
2022-10-09T11:28:13.368Z,1.30
2022-10-09T11:30:52.364Z,1.27
2022-10-09T11:34:04.097Z,1.48
2022-10-09T11:37:08.406Z,1.00
2022-10-09T11:39:46.709Z,1.17
2022-10-09T11:42:28.525Z,1.60
2022-10-09T11:45:20.738Z,1.20
2022-10-09T11:48:12.396Z,1.35
2022-10-09T11:50:54.808Z,1.30
2022-10-09T11:53:27.297Z,1.10
2022-10-09T11:56:34.938Z,1.10
2022-10-09T11:59:46.822Z,1.50
2022-10-09T12:03:15.544Z,1.08
2022-10-09T12:06:47.097Z,1.10
2022-10-09T12:09:58.158Z,1.75
2022-10-09T12:13:15.039Z,1.50
2022-10-09T12:16:06.796Z,1.40
2022-10-09T12:18:50.638Z,1.63
2022-10-09T12:21:52.456Z,1.42
2022-10-09T12:24:51.483Z,1.33
2022-10-09T12:27:49.212Z,1.67
2022-10-09T12:30:36.510Z,1.60
2022-10-09T12:33:50.686Z,1.30
2022-10-09T12:36:40.526Z,1.27
2022-10-09T12:40:10.589Z,1.25
2022-10-09T12:42:48.247Z,1.67
2022-10-09T12:45:36.577Z,1.40
2022-10-09T12:48:28.911Z,1.20
2022-10-09T12:51:06.969Z,1.00
2022-10-09T12:54:04.345Z,1.58
2022-10-09T12:56:53.053Z,1.40
2022-10-09T12:59:33.960Z,1.23
2022-10-09T13:02:13.384Z,1.13
2022-10-09T13:05:08.214Z,1.20
2022-10-09T13:07:49.467Z,1.02
2022-10-09T13:10:28.152Z,1.10
2022-10-09T13:13:07.741Z,1.20
2022-10-09T13:15:49.672Z,0.90
2022-10-09T13:18:35.222Z,1.30
2022-10-09T13:21:35.539Z,1.00
2022-10-09T13:24:17.793Z,0.93
2022-10-09T13:26:55.763Z,1.10
2022-10-09T13:29:42.314Z,1.00
2022-10-09T13:34:56.113Z,1.00
2022-10-09T13:37:42.767Z,1.00
2022-10-09T13:40:26.885Z,1.00
2022-10-09T13:43:11.962Z,0.80
2022-10-09T13:46:06.472Z,1.00
2022-10-09T13:48:49.335Z,1.00
2022-10-09T13:51:35.346Z,0.90
2022-10-09T13:54:23.922Z,1.38
2022-10-09T13:56:56.451Z,1.35
2022-10-09T13:59:33.038Z,1.08
2022-10-09T14:02:12.055Z,1.30
2022-10-09T14:04:50.611Z,1.58
2022-10-09T14:07:23.979Z,1.10
2022-10-09T14:10:05.385Z,1.10
2022-10-09T14:12:43.348Z,1.20
2022-10-09T14:15:42.465Z,1.20
2022-10-09T14:18:57.566Z,0.90
2022-10-09T14:21:55.352Z,0.90
2022-10-09T14:28:09.237Z,1.10
2022-10-09T14:31:17.810Z,0.88
2022-10-09T14:37:40.411Z,1.50
2022-10-09T14:40:41.678Z,0.82
2022-10-09T14:43:37.863Z,0.82
2022-10-09T14:49:50.496Z,0.80
2022-10-09T14:53:18.817Z,1.00
2022-10-09T14:56:30.723Z,0.90
2022-10-09T14:59:27.078Z,0.90
2022-10-09T15:06:38.459Z,0.80
2022-10-09T15:09:58.605Z,1.00
2022-10-09T15:12:57.880Z,1.10
2022-10-09T15:15:52.861Z,1.05
2022-10-09T15:18:32.612Z,0.90
2022-10-09T15:21:21.484Z,0.90
2022-10-09T15:24:25.837Z,0.82
2022-10-09T15:27:13.239Z,1.15
2022-10-09T15:30:12.049Z,1.00
2022-10-09T15:33:13.854Z,1.20
2022-10-09T15:39:47.168Z,0.82
2022-10-09T15:45:55.053Z,1.27
2022-10-09T15:48:43.783Z,1.00
2022-10-09T15:51:35.818Z,1.58
2022-10-09T15:55:03.122Z,0.93
2022-10-09T16:01:36.940Z,0.90
2022-10-09T16:05:44.537Z,1.02
2022-10-09T16:12:57.049Z,0.70
2022-10-09T16:31:59.501Z,0.90
2022-10-09T16:35:26.779Z,0.73
2022-10-09T16:38:34.457Z,0.70
2022-10-09T16:45:53.009Z,0.90
2022-10-09T16:56:45.539Z,1.15
2022-10-09T17:00:12.065Z,1.40
2022-10-09T17:03:52.111Z,1.20
2022-10-09T17:06:57.912Z,1.15
2022-10-09T17:09:52.923Z,1.98
2022-10-09T17:13:26.463Z,1.60
2022-10-09T17:16:58.288Z,1.80
2022-10-09T17:20:12.138Z,1.60
2022-10-09T17:29:38.881Z,1.40
2022-10-09T17:33:05.983Z,1.50
2022-10-09T17:44:32.571Z,1.20
2022-10-09T17:59:22.123Z,0.85
2022-10-09T18:01:59.582Z,1.02
2022-10-09T18:05:07.011Z,1.40
2022-10-09T18:19:57.824Z,1.20
2022-10-09T18:23:07.079Z,1.20
2022-10-09T18:33:32.600Z,1.00
